Time;durP1;ratioP1;P1;durP2;ratioP2;P2;SDS_P1;SDS_P2;PMS_P1;PMS_P2;Temp;Humidity;BMP_temperature;BMP_pressure;BME280_temperature;BME280_humidity;BME280_pressure;Samples;Min_cycle;Max_cycle;Signal;HPM_P1;HPM_P2
2024/01/01 00:01:44;;;;;;;18.60;12.60;;;23.30;53.60;;;;;;5071618;28;20048;-78
2024/01/01 00:04:10;;;;;;;16.75;11.35;;;23.40;53.60;;;;;;5071449;28;20055;-77
2024/01/01 00:06:37;;;;;;;16.52;11.65;;;23.50;53.60;;;;;;5071587;28;20518;-79
2024/01/01 00:09:03;;;;;;;20.25;12.90;;;23.50;53.60;;;;;;5071479;28;20537;-78
2024/01/01 00:11:29;;;;;;;20.52;12.88;;;23.30;53.60;;;;;;5071503;28;20142;-78
2024/01/01 00:13:55;;;;;;;20.63;12.85;;;23.40;53.60;;;;;;5071202;28;20047;-79
2024/01/01 00:16:22;;;;;;;20.33;11.63;;;23.30;53.60;;;;;;5071209;28;20079;-79
2024/01/01 00:18:48;;;;;;;20.30;12.93;;;23.30;53.70;;;;;;5071456;28;20511;-79
2024/01/01 00:21:14;;;;;;;17.15;11.93;;;23.40;53.80;;;;;;5071241;28;20412;-76
2024/01/01 00:23:40;;;;;;;17.02;11.63;;;23.20;53.80;;;;;;5071278;28;20052;-75
2024/01/01 00:26:06;;;;;;;16.70;10.93;;;23.30;53.90;;;;;;5037787;28;20062;-74
2024/01/01 00:28:32;;;;;;;16.50;10.70;;;23.20;53.90;;;;;;5088946;28;20069;-75
2024/01/01 00:30:58;;;;;;;14.35;10.15;;;23.10;53.80;;;;;;5092671;28;20373;-75
2024/01/01 00:33:24;;;;;;;16.70;10.85;;;23.30;53.80;;;;;;5093929;28;20031;-75
2024/01/01 00:35:51;;;;;;;16.00;12.15;;;23.10;53.60;;;;;;5092574;28;20400;-75
2024/01/01 00:38:17;;;;;;;21.40;13.70;;;23.30;53.50;;;;;;5092473;28;20043;-76
2024/01/01 00:40:43;;;;;;;21.63;14.20;;;23.20;53.30;;;;;;5074416;28;20109;-75
2024/01/01 00:43:10;;;;;;;26.60;15.98;;;23.30;53.30;;;;;;5093770;28;20122;-75
2024/01/01 00:45:36;;;;;;;25.80;18.00;;;23.20;53.10;;;;;;5093500;28;20047;-74
2024/01/01 00:48:03;;;;;;;20.35;13.13;;;23.30;53.10;;;;;;5093599;28;20032;-76
2024/01/01 00:50:29;;;;;;;32.13;20.38;;;23.20;52.90;;;;;;5091779;28;20499;-77
2024/01/01 00:52:55;;;;;;;34.60;22.35;;;23.20;52.80;;;;;;5092139;28;20395;-76
2024/01/01 00:55:21;;;;;;;35.85;21.73;;;23.40;52.90;;;;;;5093210;28;20539;-79
2024/01/01 00:57:47;;;;;;;25.92;18.30;;;23.30;52.80;;;;;;5092350;28;20036;-79
2024/01/01 01:00:14;;;;;;;27.98;18.50;;;23.30;52.70;;;;;;5092295;28;20486;-79
2024/01/01 01:02:40;;;;;;;26.60;16.52;;;23.20;52.50;;;;;;5092177;28;20024;-79
2024/01/01 01:05:06;;;;;;;21.38;13.65;;;23.20;52.50;;;;;;5093008;28;20403;-79
2024/01/01 01:07:32;;;;;;;21.85;14.43;;;23.20;52.40;;;;;;5093534;28;20119;-77
2024/01/01 01:09:58;;;;;;;21.08;14.00;;;23.20;52.40;;;;;;5095579;28;20064;-80
2024/01/01 01:12:24;;;;;;;22.20;15.63;;;23.10;52.30;;;;;;5070495;28;20044;-79
2024/01/01 01:14:50;;;;;;;19.77;12.55;;;23.00;52.20;;;;;;5053563;28;20415;-79
2024/01/01 01:17:17;;;;;;;17.15;12.18;;;23.10;52.30;;;;;;5053517;28;20056;-75
2024/01/01 01:19:43;;;;;;;21.88;14.35;;;23.10;52.30;;;;;;5029930;28;20381;-73
2024/01/01 01:22:09;;;;;;;31.67;18.05;;;23.00;52.10;;;;;;5045655;28;20045;-74
2024/01/01 01:24:35;;;;;;;35.28;22.10;;;23.00;52.10;;;;;;5049792;28;20045;-74
2024/01/01 01:27:02;;;;;;;33.22;20.30;;;23.00;52.10;;;;;;5050189;28;20144;-79
2024/01/01 01:29:28;;;;;;;31.80;19.25;;;23.10;52.10;;;;;;5050090;28;20480;-79
2024/01/01 01:31:54;;;;;;;26.58;17.05;;;23.00;52.00;;;;;;5049923;28;20033;-75
2024/01/01 01:34:21;;;;;;;26.73;17.40;;;23.00;51.90;;;;;;5033141;28;20072;-77
2024/01/01 01:36:48;;;;;;;24.38;16.77;;;23.00;51.80;;;;;;5049796;28;20127;-75
2024/01/01 01:39:14;;;;;;;26.83;18.10;;;22.90;51.70;;;;;;5049612;28;20049;-74
2024/01/01 01:41:40;;;;;;;26.95;17.33;;;23.00;51.60;;;;;;5049782;28;20459;-75
2024/01/01 01:44:06;;;;;;;25.85;17.38;;;23.10;51.60;;;;;;5032655;28;20045;-72
2024/01/01 01:46:33;;;;;;;30.70;17.38;;;23.10;51.60;;;;;;5032987;28;20084;-72
2024/01/01 01:49:01;;;;;;;27.23;17.40;;;23.00;51.40;;;;;;5055369;28;20036;-72
2024/01/01 01:51:28;;;;;;;29.67;18.45;;;23.10;51.40;;;;;;5089744;28;20392;-72
2024/01/01 01:53:54;;;;;;;32.33;19.35;;;23.10;51.40;;;;;;5072670;28;20141;-72
2024/01/01 01:56:21;;;;;;;24.20;17.38;;;23.10;51.40;;;;;;5092241;28;20526;-72
2024/01/01 01:58:48;;;;;;;30.90;18.38;;;23.10;51.30;;;;;;5091919;28;20032;-72
2024/01/01 02:01:14;;;;;;;30.15;18.30;;;23.00;51.20;;;;;;5052519;28;20052;-71
2024/01/01 02:03:40;;;;;;;29.25;17.95;;;23.00;51.20;;;;;;5068421;28;20113;-72
2024/01/01 02:06:07;;;;;;;25.05;18.42;;;23.10;51.30;;;;;;5052537;28;20508;-72
2024/01/01 02:08:33;;;;;;;33.40;19.23;;;23.00;51.20;;;;;;5052555;28;20032;-72
2024/01/01 02:10:59;;;;;;;22.42;15.30;;;23.00;51.20;;;;;;5052669;28;20079;-72
2024/01/01 02:13:30;;;;;;;23.95;16.15;;;23.00;51.20;;;;;;5069166;28;20047;-72
2024/01/01 02:15:57;;;;;;;23.88;15.57;;;22.90;51.20;;;;;;5068921;28;20044;-72
2024/01/01 02:18:25;;;;;;;22.73;15.55;;;22.80;51.00;;;;;;5069183;28;20067;-72
2024/01/01 02:20:51;;;;;;;25.00;16.05;;;22.90;51.00;;;;;;5068891;28;20086;-71
2024/01/01 02:23:18;;;;;;;27.42;17.38;;;22.90;51.00;;;;;;5069085;28;20048;-72
2024/01/01 02:25:45;;;;;;;26.58;18.08;;;22.90;50.90;;;;;;5051688;28;20508;-72
2024/01/01 02:28:11;;;;;;;26.60;17.73;;;22.90;50.90;;;;;;5069018;28;20052;-72
2024/01/01 02:30:38;;;;;;;30.30;17.15;;;22.90;50.90;;;;;;5068952;28;20079;-72
2024/01/01 02:33:08;;;;;;;29.15;18.40;;;22.90;50.90;;;;;;5083848;28;20209;-71
2024/01/01 02:35:38;;;;;;;26.42;18.15;;;23.00;50.80;;;;;;5091599;28;20517;-71
2024/01/01 02:38:04;;;;;;;27.55;18.77;;;22.80;50.60;;;;;;5073189;28;20038;-71
2024/01/01 02:40:34;;;;;;;23.63;16.67;;;22.90;50.60;;;;;;5091484;28;20047;-72
2024/01/01 02:43:01;;;;;;;26.75;17.52;;;22.80;50.50;;;;;;5090452;28;20082;-76
2024/01/01 02:45:31;;;;;;;22.58;16.85;;;22.90;50.50;;;;;;5090972;28;20055;-75
2024/01/01 02:47:58;;;;;;;24.27;17.48;;;22.90;50.40;;;;;;5091647;28;20035;-73
2024/01/01 02:50:25;;;;;;;25.55;17.50;;;22.90;50.30;;;;;;5091479;28;20028;-73
2024/01/01 02:52:51;;;;;;;26.40;17.20;;;22.90;50.40;;;;;;5051733;28;20045;-73
2024/01/01 02:55:18;;;;;;;24.33;16.35;;;22.80;50.20;;;;;;5068083;28;20353;-74
2024/01/01 02:57:45;;;;;;;25.90;15.63;;;22.90;50.20;;;;;;5011689;28;20045;-74
2024/01/01 03:00:14;;;;;;;23.95;14.82;;;22.70;50.10;;;;;;5011982;28;20102;-74
2024/01/01 03:02:41;;;;;;;28.92;17.02;;;22.90;50.20;;;;;;5010989;28;20038;-78
2024/01/01 03:05:08;;;;;;;23.95;16.02;;;22.80;50.10;;;;;;4992128;28;20461;-77
2024/01/01 03:07:34;;;;;;;25.20;15.73;;;22.70;50.10;;;;;;5008706;28;20440;-76
2024/01/01 03:10:01;;;;;;;20.00;14.23;;;22.70;50.00;;;;;;5008876;28;20041;-75
2024/01/01 03:12:27;;;;;;;19.77;13.98;;;22.70;50.00;;;;;;5008596;28;20048;-76
2024/01/01 03:14:53;;;;;;;16.83;11.57;;;22.60;49.90;;;;;;5008375;28;20441;-75
2024/01/01 03:17:19;;;;;;;18.95;13.45;;;22.70;49.90;;;;;;5008465;28;20489;-76
2024/01/01 03:19:45;;;;;;;20.73;14.07;;;22.70;49.90;;;;;;5008561;28;20700;-78
2024/01/01 03:22:11;;;;;;;16.73;11.40;;;22.60;49.90;;;;;;4991715;28;20049;-78
2024/01/01 03:24:38;;;;;;;18.88;12.45;;;22.60;49.80;;;;;;5040994;28;20132;-78
2024/01/01 03:27:04;;;;;;;17.30;11.38;;;22.50;49.80;;;;;;5031681;28;20235;-78
2024/01/01 03:29:30;;;;;;;20.85;11.95;;;22.60;49.70;;;;;;5064294;28;20052;-77
2024/01/01 03:31:56;;;;;;;19.48;12.43;;;22.70;49.80;;;;;;5088472;28;20038;-79
2024/01/01 03:34:23;;;;;;;21.05;12.95;;;22.70;49.70;;;;;;5090092;28;20134;-78
2024/01/01 03:36:50;;;;;;;23.88;14.55;;;22.70;49.60;;;;;;5072894;28;20119;-79
2024/01/01 03:39:16;;;;;;;18.98;13.63;;;22.70;49.60;;;;;;5090780;28;20105;-78
2024/01/01 03:41:42;;;;;;;16.52;11.98;;;22.70;49.50;;;;;;5105123;28;20650;-75
2024/01/01 03:44:10;;;;;;;18.05;12.00;;;22.70;49.50;;;;;;5109932;28;20027;-76
2024/01/01 03:46:36;;;;;;;21.60;11.45;;;22.80;49.40;;;;;;5111047;28;20126;-76
2024/01/01 03:49:03;;;;;;;16.25;11.55;;;22.70;49.30;;;;;;5110025;28;20101;-76
2024/01/01 03:51:29;;;;;;;20.02;12.70;;;22.80;49.30;;;;;;5074954;28;20040;-75
2024/01/01 03:53:56;;;;;;;22.73;13.80;;;22.80;49.20;;;;;;5111424;28;20102;-75
2024/01/01 03:56:22;;;;;;;22.63;14.43;;;22.80;49.20;;;;;;5109389;28;20471;-73
2024/01/01 03:58:48;;;;;;;21.20;14.48;;;22.70;49.20;;;;;;5109502;28;20049;-71
2024/01/01 04:01:14;;;;;;;23.33;14.63;;;22.70;49.20;;;;;;5110713;28;20043;-71
2024/01/01 04:03:41;;;;;;;19.80;14.07;;;22.80;49.20;;;;;;5110754;28;20069;-73
2024/01/01 04:06:08;;;;;;;20.65;15.23;;;22.60;49.10;;;;;;5074980;28;20126;-73
2024/01/01 04:08:34;;;;;;;20.58;14.95;;;22.60;49.10;;;;;;5109291;28;20081;-74
2024/01/01 04:11:01;;;;;;;23.77;15.05;;;22.60;49.20;;;;;;5110715;28;20078;-73
2024/01/01 04:13:27;;;;;;;22.30;14.77;;;22.60;49.10;;;;;;5110718;28;20028;-73
2024/01/01 04:15:53;;;;;;;19.48;14.68;;;22.60;49.10;;;;;;5110264;28;20523;-72
2024/01/01 04:18:19;;;;;;;24.77;15.07;;;22.60;49.10;;;;;;5110687;28;20490;-73
2024/01/01 04:20:46;;;;;;;26.70;15.10;;;22.50;49.10;;;;;;5110805;28;20399;-74
2024/01/01 04:23:12;;;;;;;19.90;14.25;;;22.50;49.10;;;;;;5110631;28;20028;-73
2024/01/01 04:25:38;;;;;;;22.40;14.52;;;22.60;49.10;;;;;;5110768;28;20066;-73
2024/01/01 04:28:04;;;;;;;19.35;13.38;;;22.50;49.00;;;;;;5114585;27;20043;-72
2024/01/01 04:30:30;;;;;;;20.23;13.55;;;22.60;48.90;;;;;;5114231;27;20027;-73
2024/01/01 04:32:56;;;;;;;22.25;13.15;;;22.50;48.90;;;;;;5114344;28;20360;-73
2024/01/01 04:35:22;;;;;;;19.67;13.85;;;22.60;48.80;;;;;;5114111;28;20036;-74
2024/01/01 04:37:49;;;;;;;19.83;13.48;;;22.50;48.80;;;;;;5114442;28;20394;-73
2024/01/01 04:40:15;;;;;;;17.27;12.05;;;22.60;48.80;;;;;;5114077;28;20039;-73
2024/01/01 04:42:41;;;;;;;18.77;11.40;;;22.60;48.70;;;;;;5114132;28;20063;-73
2024/01/01 04:45:09;;;;;;;15.45;11.45;;;22.60;48.60;;;;;;5114219;27;20035;-74
2024/01/01 04:47:35;;;;;;;17.45;12.38;;;22.60;48.60;;;;;;5113968;28;20066;-77
2024/01/01 04:50:01;;;;;;;14.50;11.55;;;22.60;48.60;;;;;;5114083;28;20080;-79
2024/01/01 04:52:27;;;;;;;16.67;11.05;;;22.60;48.40;;;;;;5113796;28;20051;-74
2024/01/01 04:54:56;;;;;;;16.63;11.88;;;22.60;48.40;;;;;;5113728;28;20032;-76
2024/01/01 04:57:22;;;;;;;15.10;11.45;;;22.70;48.60;;;;;;5114044;28;20036;-83
2024/01/01 04:59:49;;;;;;;17.65;11.50;;;22.60;48.60;;;;;;5117106;28;20034;-84
2024/01/01 05:02:15;;;;;;;16.60;12.18;;;22.60;48.70;;;;;;5116808;28;20092;-79
2024/01/01 05:04:41;;;;;;;10.80;8.18;;;22.60;48.90;;;;;;5113657;28;20020;-78
2024/01/01 05:07:08;;;;;;;12.45;9.05;;;22.60;48.70;;;;;;5113641;28;20044;-77
2024/01/01 05:09:34;;;;;;;14.85;7.90;;;23.20;52.10;;;;;;5113752;28;20084;-79
2024/01/01 05:12:00;;;;;;;13.95;8.95;;;23.90;50.20;;;;;;5110633;28;20027;-73
2024/01/01 05:14:26;;;;;;;19.67;10.65;;;24.40;50.10;;;;;;5113845;28;20038;-79
2024/01/01 05:16:52;;;;;;;15.43;10.68;;;24.80;52.10;;;;;;5112770;28;20055;-80
2024/01/01 05:19:20;;;;;;;18.73;11.68;;;24.70;49.00;;;;;;5113877;28;20058;-81
2024/01/01 05:21:46;;;;;;;18.15;13.65;;;24.90;59.40;;;;;;5113960;28;20498;-74
2024/01/01 05:24:12;;;;;;;18.65;11.85;;;25.10;56.20;;;;;;5113472;28;20040;-76
2024/01/01 05:26:38;;;;;;;15.48;12.10;;;24.70;49.50;;;;;;5112958;28;20057;-81
2024/01/01 05:29:04;;;;;;;17.30;13.30;;;24.70;47.30;;;;;;5112235;28;20032;-79
2024/01/01 05:31:30;;;;;;;15.90;12.32;;;24.30;46.20;;;;;;5110876;28;20401;-81
2024/01/01 05:33:57;;;;;;;16.00;12.27;;;24.20;45.20;;;;;;5110261;28;20035;-80
2024/01/01 05:36:23;;;;;;;20.42;15.60;;;24.00;44.80;;;;;;5110078;28;20035;-78
2024/01/01 05:38:49;;;;;;;20.45;14.68;;;24.00;45.20;;;;;;5110701;28;20097;-79
2024/01/01 05:41:15;;;;;;;18.40;12.02;;;23.80;45.40;;;;;;5110295;28;20039;-76
2024/01/01 05:43:41;;;;;;;18.30;11.98;;;23.70;45.80;;;;;;5108975;28;20493;-80
2024/01/01 05:46:07;;;;;;;14.82;9.93;;;23.70;46.70;;;;;;5111016;28;20063;-76
2024/01/01 05:48:33;;;;;;;14.52;9.88;;;23.70;47.50;;;;;;5096993;28;20028;-75
2024/01/01 05:50:59;;;;;;;11.18;7.35;;;23.60;47.70;;;;;;5073024;28;20144;-75
2024/01/01 05:53:26;;;;;;;14.93;8.70;;;23.60;48.50;;;;;;5092485;28;20043;-74
2024/01/01 05:55:52;;;;;;;17.95;10.30;;;23.70;48.90;;;;;;5092273;28;20036;-75
2024/01/01 05:58:18;;;;;;;11.05;7.45;;;23.50;49.10;;;;;;5092546;28;20042;-75
2024/01/01 06:00:45;;;;;;;10.05;6.93;;;23.50;49.20;;;;;;5092143;28;20070;-74
2024/01/01 06:03:11;;;;;;;9.32;6.88;;;23.70;51.40;;;;;;5090959;28;20044;-74
2024/01/01 06:05:37;;;;;;;11.68;7.55;;;23.80;50.80;;;;;;5091961;28;20070;-75
2024/01/01 06:08:04;;;;;;;12.15;7.60;;;23.90;50.50;;;;;;5091755;28;20111;-73
2024/01/01 06:10:31;;;;;;;11.57;7.95;;;24.10;49.80;;;;;;5092098;28;20040;-74
2024/01/01 06:12:57;;;;;;;9.90;8.07;;;24.30;50.50;;;;;;5092006;28;20537;-76
2024/01/01 06:15:25;;;;;;;11.23;7.95;;;24.30;50.30;;;;;;5090271;28;20476;-75
2024/01/01 06:17:52;;;;;;;11.25;7.88;;;24.20;50.20;;;;;;5091701;28;20048;-73
2024/01/01 06:20:18;;;;;;;9.68;7.88;;;24.20;49.50;;;;;;5091819;28;20514;-75
2024/01/01 06:22:46;;;;;;;12.07;9.88;;;24.10;49.80;;;;;;5090299;28;20510;-75
2024/01/01 06:25:13;;;;;;;14.68;11.25;;;24.20;50.50;;;;;;5091825;28;20040;-76
2024/01/01 06:27:39;;;;;;;16.33;13.23;;;24.10;45.40;;;;;;5071449;28;20081;-80
2024/01/01 06:30:06;;;;;;;15.13;11.85;;;24.00;42.80;;;;;;5111976;28;20387;-80
2024/01/01 06:32:32;;;;;;;13.00;11.10;;;23.90;42.70;;;;;;5111983;28;20124;-80
2024/01/01 06:34:59;;;;;;;16.70;11.43;;;23.90;42.90;;;;;;5111983;28;20125;-76
2024/01/01 06:37:25;;;;;;;15.15;9.55;;;23.90;40.60;;;;;;5097440;28;20028;-80
2024/01/01 06:39:51;;;;;;;11.93;9.80;;;23.80;39.40;;;;;;5095507;28;20043;-71
2024/01/01 06:42:17;;;;;;;16.40;11.55;;;23.70;38.70;;;;;;5101589;28;20060;-75
2024/01/01 06:44:46;;;;;;;17.45;12.18;;;23.60;44.20;;;;;;5100066;28;20459;-75
2024/01/01 06:47:12;;;;;;;18.30;10.93;;;23.70;47.50;;;;;;5103231;28;20020;-76
2024/01/01 06:49:38;;;;;;;18.33;12.27;;;23.70;47.90;;;;;;5080757;28;20067;-79
2024/01/01 06:52:06;;;;;;;17.42;12.10;;;23.80;49.20;;;;;;5101759;28;20455;-73
2024/01/01 06:54:32;;;;;;;16.80;11.32;;;23.70;49.10;;;;;;5099238;28;20034;-78
2024/01/01 06:56:58;;;;;;;16.58;11.18;;;23.70;49.10;;;;;;5102425;28;20391;-75
2024/01/01 06:59:30;;;;;;;13.63;10.25;;;23.80;49.10;;;;;;5098535;28;20024;-75
2024/01/01 07:01:58;;;;;;;16.38;11.32;;;23.70;49.20;;;;;;5101572;28;20043;-74
2024/01/01 07:04:25;;;;;;;29.92;17.95;;;23.50;51.60;;;;;;5099241;28;20719;-75
2024/01/01 07:06:51;;;;;;;21.02;13.70;;;23.60;50.00;;;;;;5099950;28;20055;-76
2024/01/01 07:09:18;;;;;;;27.52;16.17;;;23.60;49.90;;;;;;5100361;28;20027;-76
2024/01/01 07:11:44;;;;;;;20.05;12.43;;;23.50;50.00;;;;;;5101892;28;20031;-79
2024/01/01 07:14:11;;;;;;;16.85;11.60;;;23.40;50.00;;;;;;5084924;28;20402;-73
2024/01/01 07:16:37;;;;;;;21.70;14.23;;;23.50;50.70;;;;;;5100984;28;20763;-77
2024/01/01 07:19:03;;;;;;;20.83;13.00;;;23.40;51.40;;;;;;5099895;28;20811;-77
2024/01/01 07:21:29;;;;;;;19.83;11.93;;;23.30;52.60;;;;;;5093315;28;20480;-77
2024/01/01 07:23:55;;;;;;;21.77;13.85;;;23.40;53.10;;;;;;5094074;28;20111;-80
2024/01/01 07:26:21;;;;;;;18.85;12.55;;;23.30;53.00;;;;;;5100526;28;20027;-80
2024/01/01 07:28:47;;;;;;;21.00;13.43;;;23.30;53.10;;;;;;5109759;28;20505;-78
2024/01/01 07:31:14;;;;;;;18.58;13.90;;;23.30;53.10;;;;;;5090930;28;20476;-80
2024/01/01 07:33:40;;;;;;;19.17;12.02;;;23.20;52.80;;;;;;5111047;28;20039;-77
2024/01/01 07:36:12;;;;;;;18.67;11.15;;;23.20;52.60;;;;;;5111069;28;20042;-77
2024/01/01 07:38:40;;;;;;;18.50;11.45;;;23.20;52.90;;;;;;5110877;28;20114;-76
2024/01/01 07:41:06;;;;;;;18.40;11.38;;;23.20;53.00;;;;;;5099552;28;20075;-78
2024/01/01 07:43:32;;;;;;;16.63;11.75;;;23.10;52.90;;;;;;5090623;28;20471;-78
2024/01/01 07:45:58;;;;;;;17.48;12.13;;;23.20;53.00;;;;;;5088334;28;20130;-76
2024/01/01 07:48:24;;;;;;;17.50;12.32;;;23.20;53.10;;;;;;5090117;28;20036;-77
2024/01/01 07:50:50;;;;;;;18.25;11.65;;;23.20;53.10;;;;;;5090220;28;20028;-78
2024/01/01 07:53:16;;;;;;;15.77;11.27;;;23.10;53.20;;;;;;5091987;28;20480;-79
2024/01/01 07:55:42;;;;;;;19.33;11.68;;;23.10;53.20;;;;;;5110755;28;20035;-79
2024/01/01 07:58:08;;;;;;;17.63;12.27;;;23.20;53.30;;;;;;5110938;28;20039;-79
2024/01/01 08:00:34;;;;;;;16.95;11.18;;;23.20;53.30;;;;;;5111419;28;20085;-76
2024/01/01 08:03:00;;;;;;;17.08;12.57;;;23.20;53.30;;;;;;5113652;28;20038;-79
2024/01/01 08:05:26;;;;;;;16.35;11.57;;;23.20;53.20;;;;;;5115121;28;20027;-76
2024/01/01 08:07:53;;;;;;;20.35;12.23;;;23.30;53.30;;;;;;5114515;28;20122;-77
2024/01/01 08:10:19;;;;;;;21.23;11.82;;;23.30;53.30;;;;;;5114195;28;20483;-78
2024/01/01 08:12:45;;;;;;;20.50;12.43;;;23.20;53.10;;;;;;5114408;28;20043;-78
2024/01/01 08:15:11;;;;;;;15.85;11.35;;;23.20;52.90;;;;;;5114635;28;20031;-78
2024/01/01 08:17:37;;;;;;;17.80;11.38;;;23.20;52.90;;;;;;5095006;28;20048;-78
2024/01/01 08:20:04;;;;;;;14.50;9.88;;;23.20;52.70;;;;;;5113460;28;20043;-77
2024/01/01 08:22:31;;;;;;;14.40;10.23;;;23.20;52.70;;;;;;5114489;28;20080;-75
2024/01/01 08:24:57;;;;;;;16.75;9.90;;;23.20;52.70;;;;;;5110946;28;20027;-76
2024/01/01 08:27:23;;;;;;;13.18;10.32;;;23.10;52.50;;;;;;5098499;28;20597;-79
2024/01/01 08:29:49;;;;;;;21.63;10.55;;;23.20;52.40;;;;;;5114646;28;20047;-80
2024/01/01 08:32:15;;;;;;;17.00;10.52;;;23.10;52.80;;;;;;5114402;28;20023;-77
2024/01/01 08:34:41;;;;;;;14.90;8.63;;;23.10;53.60;;;;;;5114252;28;20544;-74
2024/01/01 08:37:07;;;;;;;10.55;6.53;;;23.10;53.60;;;;;;5114432;28;20034;-73
2024/01/01 08:39:33;;;;;;;11.30;4.85;;;23.00;53.50;;;;;;5114229;28;20035;-74
2024/01/01 08:41:59;;;;;;;11.60;7.25;;;23.10;53.60;;;;;;5114354;28;20096;-74
2024/01/01 08:44:26;;;;;;;8.02;5.13;;;23.00;54.10;;;;;;5114011;28;20038;-76
2024/01/01 08:46:52;;;;;;;8.68;5.25;;;23.10;54.80;;;;;;5113902;28;20073;-76
2024/01/01 08:49:18;;;;;;;6.93;4.53;;;23.10;55.00;;;;;;5114277;28;20032;-76
2024/01/01 08:51:44;;;;;;;7.07;5.68;;;23.10;54.60;;;;;;5112708;28;20019;-75
2024/01/01 08:54:12;;;;;;;7.60;4.68;;;23.20;54.70;;;;;;5113893;28;20028;-76
2024/01/01 08:56:41;;;;;;;8.45;4.88;;;23.10;54.40;;;;;;5112380;28;20081;-72
2024/01/01 08:59:09;;;;;;;6.82;4.18;;;23.20;54.30;;;;;;5114024;28;20038;-73
2024/01/01 09:01:36;;;;;;;8.88;5.75;;;23.10;53.40;;;;;;5113657;28;20130;-73
2024/01/01 09:04:04;;;;;;;10.18;6.18;;;23.20;51.40;;;;;;5112122;28;20053;-74
2024/01/01 09:06:30;;;;;;;9.73;6.63;;;23.20;50.10;;;;;;5113413;28;20446;-74
2024/01/01 09:08:57;;;;;;;8.80;5.60;;;23.20;49.10;;;;;;5113443;28;20039;-73
2024/01/01 09:11:24;;;;;;;15.07;9.98;;;23.10;48.40;;;;;;5113036;28;20047;-75
2024/01/01 09:13:50;;;;;;;16.73;11.60;;;23.30;48.20;;;;;;5113198;28;20065;-75
2024/01/01 09:16:16;;;;;;;15.70;10.15;;;23.20;47.80;;;;;;5112179;28;20043;-75
2024/01/01 09:18:42;;;;;;;14.75;10.65;;;23.20;47.80;;;;;;5113413;28;20039;-76
2024/01/01 09:21:17;;;;;;;14.57;10.18;;;23.10;47.60;;;;;;5113380;28;20039;-75
2024/01/01 09:23:43;;;;;;;13.70;9.52;;;23.10;48.00;;;;;;5113276;28;20047;-75
2024/01/01 09:26:09;;;;;;;14.18;9.95;;;23.20;48.40;;;;;;5113429;28;20122;-75
2024/01/01 09:28:35;;;;;;;13.27;9.15;;;23.10;48.60;;;;;;5111547;28;20031;-75
2024/01/01 09:31:01;;;;;;;15.43;10.45;;;23.20;48.90;;;;;;5110845;28;20031;-75
2024/01/01 09:33:28;;;;;;;17.00;10.57;;;23.10;48.90;;;;;;5093547;28;20096;-73
2024/01/01 09:35:55;;;;;;;12.73;9.43;;;23.00;49.00;;;;;;5112784;28;20497;-75
2024/01/01 09:38:21;;;;;;;8.80;7.00;;;23.10;49.10;;;;;;5093867;28;20043;-76
2024/01/01 09:40:47;;;;;;;11.45;7.85;;;23.10;47.30;;;;;;5111770;28;20039;-77
2024/01/01 09:43:17;;;;;;;11.20;8.18;;;23.40;50.00;;;;;;5112742;28;20086;-77
2024/01/01 09:45:46;;;;;;;22.92;10.68;;;23.60;50.70;;;;;;5112527;28;20036;-84
2024/01/01 09:48:12;;;;;;;26.30;11.15;;;23.80;50.10;;;;;;5108889;28;20041;-73
2024/01/01 09:50:38;;;;;;;25.73;10.57;;;23.90;53.00;;;;;;5091893;28;20039;-74
2024/01/01 09:53:05;;;;;;;16.85;10.05;;;24.10;50.00;;;;;;5092116;28;20024;-79
2024/01/01 09:55:31;;;;;;;15.95;10.00;;;24.20;52.90;;;;;;5090459;28;20387;-79
2024/01/01 09:57:57;;;;;;;14.05;9.10;;;24.10;47.40;;;;;;5090605;28;20040;-77
2024/01/01 10:00:24;;;;;;;14.40;9.32;;;24.10;45.20;;;;;;5091867;28;20036;-75
2024/01/01 10:02:51;;;;;;;12.88;7.88;;;24.10;46.80;;;;;;5092066;28;20032;-82
2024/01/01 10:05:17;;;;;;;11.98;8.32;;;24.20;44.90;;;;;;5069628;28;20077;-77
2024/01/01 10:07:47;;;;;;;13.23;10.13;;;24.20;44.50;;;;;;5092827;28;20035;-79
2024/01/01 10:10:26;;;;;;;13.38;9.07;;;24.30;46.30;;;;;;5112246;28;20058;-74
2024/01/01 10:12:52;;;;;;;11.93;8.57;;;24.30;43.50;;;;;;5112275;28;20106;-77
2024/01/01 10:15:18;;;;;;;13.63;7.88;;;24.30;46.30;;;;;;5111081;28;20032;-82
2024/01/01 10:17:45;;;;;;;8.93;7.35;;;24.40;43.30;;;;;;5112160;28;20098;-83
2024/01/01 10:20:12;;;;;;;15.80;9.07;;;24.50;43.80;;;;;;5111263;28;20534;-85
2024/01/01 10:22:39;;;;;;;13.20;7.60;;;24.50;45.30;;;;;;5112147;28;20470;-74
2024/01/01 10:25:13;;;;;;;12.82;7.53;;;24.50;43.60;;;;;;5111304;28;20407;-85
2024/01/01 10:27:43;;;;;;;8.88;6.88;;;24.50;44.60;;;;;;5111809;28;20031;-80
2024/01/01 10:30:10;;;;;;;9.82;6.70;;;24.60;43.70;;;;;;5111011;28;20040;-77
2024/01/01 10:32:37;;;;;;;10.32;7.43;;;24.50;43.80;;;;;;5112232;28;20122;-78
2024/01/01 10:35:04;;;;;;;8.98;7.55;;;24.50;43.60;;;;;;5112227;28;20028;-78
2024/01/01 10:37:32;;;;;;;11.90;6.78;;;24.50;44.80;;;;;;5111644;28;20039;-76
2024/01/01 10:40:04;;;;;;;8.63;6.82;;;24.50;43.40;;;;;;5111918;28;20040;-80
2024/01/01 10:42:33;;;;;;;9.52;7.13;;;24.60;43.30;;;;;;5092835;28;20079;-81
2024/01/01 10:45:03;;;;;;;9.05;6.30;;;24.60;42.10;;;;;;5111966;28;20062;-77
2024/01/01 10:47:31;;;;;;;9.00;6.72;;;24.60;43.60;;;;;;5111622;28;20027;-79
2024/01/01 10:50:14;;;;;;;10.90;7.60;;;24.70;44.90;;;;;;5111604;28;20477;-79
2024/01/01 10:53:08;;;;;;;16.67;7.72;;;24.70;45.60;;;;;;5111389;28;20547;-81
2024/01/01 10:55:59;;;;;;;14.30;6.85;;;24.70;45.00;;;;;;5111509;28;20562;-78
2024/01/01 10:58:28;;;;;;;14.73;9.82;;;24.90;47.30;;;;;;5111693;28;20062;-77
2024/01/01 11:01:13;;;;;;;17.35;10.40;;;24.80;44.90;;;;;;5111684;28;20409;-79
2024/01/01 11:03:41;;;;;;;13.82;9.52;;;24.70;46.90;;;;;;5110524;28;20043;-81
2024/01/01 11:06:27;;;;;;;17.75;11.02;;;24.80;47.80;;;;;;5090724;28;20518;-79
2024/01/01 11:08:54;;;;;;;17.80;10.48;;;24.70;48.70;;;;;;5091021;28;20471;-83
2024/01/01 11:11:27;;;;;;;15.13;10.23;;;24.70;48.30;;;;;;5090592;28;20107;-79
2024/01/01 11:13:54;;;;;;;;;;;24.80;47.90;;;;;;5089390;28;20058;-74
2024/01/01 11:16:21;;;;;;;17.42;10.57;;;24.70;49.40;;;;;;5087944;28;19916;-76
2024/01/01 11:18:48;;;;;;;14.85;9.63;;;24.80;50.00;;;;;;5088940;28;20155;-74
2024/01/01 11:21:32;;;;;;;15.77;10.32;;;24.70;49.10;;;;;;5088689;28;20028;-80
2024/01/01 11:24:03;;;;;;;16.73;6.68;;;24.90;51.60;;;;;;5105822;28;20715;-74
2024/01/01 11:26:30;;;;;;;10.10;5.93;;;25.10;51.20;;;;;;5108396;28;20032;-75
2024/01/01 11:29:00;;;;;;;10.38;7.05;;;25.40;50.20;;;;;;5086659;28;20044;-71
2024/01/01 11:31:28;;;;;;;9.65;6.72;;;25.30;53.10;;;;;;5098342;28;20047;-74
2024/01/01 11:34:08;;;;;;;10.32;7.07;;;25.60;51.10;;;;;;5108975;28;20574;-75
2024/01/01 11:36:40;;;;;;;10.57;7.45;;;25.40;47.40;;;;;;5111564;28;20114;-76
2024/01/01 11:39:07;;;;;;;10.77;6.50;;;25.30;44.70;;;;;;5108773;28;20054;-77
2024/01/01 11:41:33;;;;;;;9.38;6.90;;;25.30;42.00;;;;;;5092495;28;20067;-75
2024/01/01 11:44:10;;;;;;;14.93;9.65;;;25.20;40.10;;;;;;5111771;28;20109;-78
2024/01/01 11:46:37;;;;;;;13.85;9.55;;;25.30;45.90;;;;;;5091461;28;20046;-74
2024/01/01 11:49:04;;;;;;;15.48;9.65;;;25.20;47.20;;;;;;5101183;28;20059;-76
2024/01/01 11:51:49;;;;;;;14.60;10.27;;;25.20;47.60;;;;;;5093251;28;20035;-76
2024/01/01 11:54:15;;;;;;;16.17;9.85;;;25.10;48.00;;;;;;5091943;28;20032;-78
2024/01/01 11:56:42;;;;;;;18.10;10.30;;;25.00;48.30;;;;;;5091668;28;20032;-80
2024/01/01 11:59:09;;;;;;;15.25;9.50;;;25.10;48.40;;;;;;5091841;28;20531;-76
2024/01/01 12:01:38;;;;;;;14.05;9.15;;;25.30;54.00;;;;;;5091352;28;20028;-80
2024/01/01 12:04:06;;;;;;;16.15;9.73;;;26.10;56.00;;;;;;5093834;28;20406;-80
2024/01/01 12:06:34;;;;;;;13.10;9.98;;;26.80;56.00;;;;;;5111687;28;20048;-83
2024/01/01 12:09:09;;;;;;;13.07;9.68;;;27.20;59.50;;;;;;5113387;28;20038;-75
2024/01/01 12:11:37;;;;;;;16.35;10.27;;;27.40;63.30;;;;;;5113389;27;20122;-74
2024/01/01 12:14:04;;;;;;;14.95;10.73;;;27.50;55.60;;;;;;5111738;28;20036;-75
2024/01/01 12:16:31;;;;;;;12.25;9.38;;;27.20;51.90;;;;;;5111959;28;20097;-72
2024/01/01 12:19:07;;;;;;;14.25;9.93;;;27.00;50.50;;;;;;5112587;28;20035;-74
2024/01/01 12:21:41;;;;;;;13.30;9.45;;;26.50;49.90;;;;;;5094295;28;20043;-76
2024/01/01 12:24:18;;;;;;;16.23;9.82;;;26.30;50.00;;;;;;5114916;28;20088;-74
2024/01/01 12:26:50;;;;;;;13.00;9.13;;;26.20;50.10;;;;;;5112484;28;20035;-79
2024/01/01 12:29:19;;;;;;;14.80;9.07;;;26.10;50.20;;;;;;5093608;28;20122;-76
2024/01/01 12:31:47;;;;;;;14.20;9.40;;;26.00;50.30;;;;;;5093071;28;20466;-74